Time;durP1;ratioP1;P1;durP2;ratioP2;P2;SDS_P1;SDS_P2;PMS_P1;PMS_P2;Temp;Humidity;BMP_temperature;BMP_pressure;BME280_temperature;BME280_humidity;BME280_pressure;Samples;Min_cycle;Max_cycle;Signal;HPM_P1;HPM_P2
2022/12/11 00:00:39;;;;;;;106.93;45.05;;;;;;;4.11;100.00;98328.31;5070951;28;20501;-80
2022/12/11 00:03:05;;;;;;;105.50;47.25;;;;;;;4.12;100.00;98334.31;5088833;28;20424;-80
2022/12/11 00:05:30;;;;;;;129.63;48.58;;;;;;;4.12;100.00;98314.34;5089554;28;20038;-80
2022/12/11 00:07:56;;;;;;;111.82;47.95;;;;;;;4.12;100.00;98332.53;5070399;28;20107;-80
2022/12/11 00:10:22;;;;;;;115.85;47.03;;;;;;;4.16;100.00;98324.41;5071390;28;20036;-81
2022/12/11 00:12:47;;;;;;;127.78;46.47;;;;;;;4.09;100.00;98339.88;5089394;28;20029;-80
2022/12/11 00:15:13;;;;;;;166.00;49.47;;;;;;;4.01;100.00;98327.72;5089053;28;20434;-81
2022/12/11 00:17:39;;;;;;;110.05;47.70;;;;;;;4.11;100.00;98337.91;5090342;28;20027;-81
2022/12/11 00:20:05;;;;;;;126.90;47.53;;;;;;;4.05;100.00;98329.00;5090215;28;20024;-80
2022/12/11 00:22:30;;;;;;;134.48;50.13;;;;;;;4.09;100.00;98335.47;5089205;28;20028;-82
2022/12/11 00:24:56;;;;;;;111.95;45.50;;;;;;;4.07;100.00;98336.63;5054874;28;20028;-81
2022/12/11 00:27:22;;;;;;;119.63;48.08;;;;;;;4.17;100.00;98336.41;5088694;28;20028;-81
2022/12/11 00:29:47;;;;;;;112.07;46.42;;;;;;;4.13;100.00;98331.56;5089688;28;20058;-81
2022/12/11 00:32:13;;;;;;;110.55;46.00;;;;;;;4.10;100.00;98337.09;5091461;28;20032;-81
2022/12/11 00:34:41;;;;;;;119.75;49.50;;;;;;;4.03;100.00;98323.16;5092605;28;20387;-82
2022/12/11 00:37:07;;;;;;;113.90;47.55;;;;;;;4.11;100.00;98328.31;5074688;28;20037;-81
2022/12/11 00:39:32;;;;;;;109.90;47.20;;;;;;;4.08;100.00;98314.88;5093452;28;20046;-81
2022/12/11 00:41:58;;;;;;;118.20;47.97;;;;;;;4.11;100.00;98324.91;5092956;28;20534;-81
2022/12/11 00:44:24;;;;;;;113.32;47.17;;;;;;;4.09;100.00;98324.28;5074381;28;20045;-81
2022/12/11 00:46:49;;;;;;;131.95;48.17;;;;;;;3.94;100.00;98321.59;5054511;28;22753;-80
2022/12/11 00:49:15;;;;;;;128.48;49.03;;;;;;;4.02;100.00;98324.16;5072438;28;20021;-81
2022/12/11 00:51:40;;;;;;;110.55;46.10;;;;;;;4.04;100.00;98324.00;5072338;28;20025;-81
2022/12/11 00:54:06;;;;;;;123.35;46.88;;;;;;;4.02;100.00;98318.97;5072751;28;20035;-80
2022/12/11 00:56:31;;;;;;;117.07;48.33;;;;;;;4.02;100.00;98318.97;5072964;28;20114;-80
2022/12/11 00:58:57;;;;;;;114.25;48.03;;;;;;;3.95;100.00;98325.81;5054399;28;20038;-81
2022/12/11 01:01:24;;;;;;;123.18;50.80;;;;;;;3.88;100.00;98327.44;5071610;28;20081;-80
2022/12/11 01:03:50;;;;;;;136.13;50.35;;;;;;;3.88;100.00;98328.28;5070394;28;20039;-80
2022/12/11 01:06:22;;;;;;;107.78;47.25;;;;;;;3.90;100.00;98333.28;5053955;28;20032;-81
2022/12/11 01:10:22;;;;;;;108.18;47.78;;;;;;;3.73;100.00;98335.94;5071930;28;20513;-80
2022/12/11 01:11:33;;;;;;;102.47;44.92;;;;;;;3.68;100.00;98327.84;5071326;28;20032;-81
2022/12/11 01:13:59;;;;;;;113.45;43.85;;;;;;;3.61;100.00;98332.88;5072308;28;20031;-80
2022/12/11 01:16:25;;;;;;;101.50;41.78;;;;;;;3.46;100.00;98324.19;5071581;28;21633;-80
2022/12/11 01:18:50;;;;;;;92.13;41.28;;;;;;;3.45;100.00;98338.16;5054393;28;20033;-81
2022/12/11 01:21:16;;;;;;;84.20;39.08;;;;;;;3.41;100.00;98322.09;5072148;28;20032;-79
2022/12/11 01:23:41;;;;;;;88.05;36.97;;;;;;;3.45;100.00;98333.75;5072102;28;20409;-79
2022/12/11 01:26:13;;;;;;;87.82;38.25;;;;;;;3.47;100.00;98331.00;5072046;28;20039;-80
2022/12/11 01:28:40;;;;;;;85.43;39.20;;;;;;;3.49;100.00;98323.88;5072155;28;20032;-81
2022/12/11 01:31:09;;;;;;;83.90;36.95;;;;;;;3.55;100.00;98331.78;5071575;28;20052;-81
2022/12/11 01:33:35;;;;;;;83.03;38.17;;;;;;;3.54;100.00;98335.38;5071345;28;20024;-80
2022/12/11 01:36:05;;;;;;;79.15;37.08;;;;;;;3.57;100.00;98327.25;5071349;28;20029;-80
2022/12/11 01:38:30;;;;;;;98.78;38.47;;;;;;;3.55;100.00;98329.19;5071929;28;20048;-81
2022/12/11 01:40:56;;;;;;;90.88;37.63;;;;;;;3.56;100.00;98323.03;5037515;28;20032;-80
2022/12/11 01:43:21;;;;;;;89.18;38.90;;;;;;;3.60;100.00;98331.28;5078254;28;20064;-81
2022/12/11 01:45:48;;;;;;;89.50;39.67;;;;;;;3.61;100.00;98319.13;5083184;28;20032;-81
2022/12/11 01:48:19;;;;;;;276.05;51.13;;;;;;;3.53;100.00;98323.34;5081065;28;20036;-81
2022/12/11 01:50:55;;;;;;;88.60;35.13;;;;;;;3.63;100.00;98335.34;5083298;28;20030;-81
2022/12/11 01:53:27;;;;;;;76.72;35.25;;;;;;;3.57;100.00;98327.25;5081629;28;20039;-80
2022/12/11 01:55:56;;;;;;;109.97;40.15;;;;;;;3.62;100.00;98333.72;5061932;28;20028;-81
2022/12/11 01:58:26;;;;;;;87.07;39.58;;;;;;;3.72;100.00;98331.72;5080155;28;20024;-81
2022/12/11 02:00:52;;;;;;;96.05;39.92;;;;;;;3.62;100.00;98325.94;5063202;28;20039;-82
2022/12/11 02:03:18;;;;;;;88.32;39.33;;;;;;;3.61;100.00;98334.69;5065291;28;20040;-81
2022/12/11 02:05:44;;;;;;;83.90;39.15;;;;;;;3.45;100.00;98327.78;5064777;28;20035;-81
2022/12/11 02:08:10;;;;;;;90.82;41.10;;;;;;;3.38;100.00;98330.22;5082283;28;20024;-80
2022/12/11 02:10:46;;;;;;;86.13;39.35;;;;;;;3.35;100.00;98333.16;5082514;28;20028;-81
2022/12/11 02:13:22;;;;;;;81.07;37.72;;;;;;;3.36;100.00;98319.19;5079148;28;20446;-80
2022/12/11 02:15:56;;;;;;;79.50;38.08;;;;;;;3.25;100.00;98328.94;5074672;28;20090;-80
2022/12/11 02:18:37;;;;;;;74.95;36.35;;;;;;;3.37;100.00;98336.38;5057947;28;20462;-80
2022/12/11 02:21:06;;;;;;;82.72;38.00;;;;;;;3.35;100.00;98343.53;5088350;28;20037;-80
2022/12/11 02:24:07;;;;;;;80.82;36.78;;;;;;;3.36;100.00;98335.56;5059941;28;20028;-81
2022/12/11 02:26:50;;;;;;;78.47;35.45;;;;;;;3.31;100.00;98343.03;5082157;28;20028;-80
2022/12/11 02:29:43;;;;;;;76.75;35.53;;;;;;;3.47;100.00;98337.00;5044474;28;20481;-81
2022/12/11 02:32:19;;;;;;;53.20;24.58;;;;;;;3.40;100.00;98338.63;5071394;28;20032;-80
2022/12/11 02:35:18;;;;;;;69.00;33.55;;;;;;;3.39;100.00;98339.63;5083716;28;20062;-80
2022/12/11 02:37:47;;;;;;;78.40;33.53;;;;;;;3.40;100.00;98343.81;5062093;28;20028;-81
2022/12/11 02:40:18;;;;;;;81.03;34.28;;;;;;;3.29;100.00;98345.78;5055938;28;21530;-80
2022/12/11 02:42:46;;;;;;;72.28;34.30;;;;;;;3.33;100.00;98351.44;5060245;28;20406;-80
2022/12/11 02:45:13;;;;;;;71.60;32.95;;;;;;;3.39;100.00;98350.00;5091347;28;20461;-81
2022/12/11 02:47:42;;;;;;;69.35;31.88;;;;;;;3.44;100.00;98347.69;5091919;28;20060;-81
2022/12/11 02:50:12;;;;;;;68.25;30.63;;;;;;;3.40;100.00;98341.22;5090203;28;20036;-80
2022/12/11 02:52:40;;;;;;;82.95;32.15;;;;;;;3.20;100.00;98340.75;5090429;28;20088;-81
2022/12/11 02:55:07;;;;;;;71.45;31.52;;;;;;;3.18;100.00;98330.56;5089171;28;20148;-80
2022/12/11 02:58:16;;;;;;;66.20;29.42;;;;;;;3.32;100.00;98333.44;5089195;28;20039;-81
2022/12/11 03:00:44;;;;;;;66.07;29.13;;;;;;;3.13;100.00;98325.03;5009080;28;20056;-81
2022/12/11 03:03:11;;;;;;;62.80;27.58;;;;;;;2.97;100.00;98324.09;5008322;28;20502;-82
2022/12/11 03:05:39;;;;;;;67.70;28.65;;;;;;;3.07;100.00;98326.53;5033767;28;20463;-81
2022/12/11 03:08:05;;;;;;;63.63;27.65;;;;;;;3.09;100.00;98326.34;5090668;28;20036;-80
2022/12/11 03:10:31;;;;;;;62.38;26.35;;;;;;;3.06;100.00;98321.50;5089695;28;20057;-80
2022/12/11 03:12:59;;;;;;;70.53;28.15;;;;;;;3.10;100.00;98318.41;5090144;28;20032;-81
2022/12/11 03:15:45;;;;;;;60.28;27.02;;;;;;;3.33;100.00;98328.09;5106019;28;20382;-81
2022/12/11 03:18:27;;;;;;;60.25;26.50;;;;;;;3.12;100.00;98313.06;5073302;28;20406;-81
2022/12/11 03:21:20;;;;;;;54.95;25.33;;;;;;;3.18;100.00;98322.78;5089701;28;20512;-80
2022/12/11 03:24:04;;;;;;;55.70;24.10;;;;;;;2.98;100.00;98317.13;5071100;28;20050;-81
2022/12/11 03:26:36;;;;;;;57.25;25.25;;;;;;;3.11;100.00;98316.63;5072633;28;20062;-80
2022/12/11 03:29:12;;;;;;;42.30;18.23;;;;;;;3.04;100.00;98300.13;5072314;28;20073;-81
2022/12/11 03:31:48;;;;;;;55.25;23.63;;;;;;;3.04;100.00;98306.09;5072865;28;20039;-81
2022/12/11 03:34:28;;;;;;;61.20;25.77;;;;;;;3.09;100.00;98305.59;5090148;28;20039;-81
2022/12/11 03:36:56;;;;;;;55.63;23.98;;;;;;;2.97;100.00;98303.38;5071356;28;20389;-80
2022/12/11 03:39:32;;;;;;;56.30;24.42;;;;;;;2.96;100.00;98308.69;5090026;28;20398;-81
2022/12/11 03:42:01;;;;;;;63.78;26.55;;;;;;;2.88;100.00;98306.91;5089681;28;20497;-80
2022/12/11 03:44:30;;;;;;;64.35;25.70;;;;;;;2.90;100.00;98299.78;5089585;28;20051;-82
2022/12/11 03:46:58;;;;;;;63.58;26.67;;;;;;;2.86;100.00;98308.88;5089676;28;20044;-81
2022/12/11 03:49:28;;;;;;;61.20;24.92;;;;;;;2.81;100.00;98303.38;5089947;28;20089;-82
2022/12/11 03:51:57;;;;;;;72.75;28.92;;;;;;;2.94;100.00;98298.47;5072019;28;20424;-81
2022/12/11 03:54:23;;;;;;;68.28;27.65;;;;;;;3.09;100.00;98293.47;5090883;28;20046;-82
2022/12/11 03:56:54;;;;;;;71.00;27.35;;;;;;;3.07;100.00;98300.59;5071672;28;20043;-81
2022/12/11 03:59:20;;;;;;;100.25;29.67;;;;;;;2.97;100.00;98290.41;5089525;28;20066;-81
2022/12/11 04:01:46;;;;;;;71.35;27.65;;;;;;;3.10;100.00;98295.09;5089509;28;20115;-80
2022/12/11 04:04:11;;;;;;;73.80;28.23;;;;;;;3.13;100.00;98293.91;5089802;28;20033;-81
2022/12/11 04:06:37;;;;;;;68.38;27.77;;;;;;;2.99;100.00;98285.03;5091445;28;20028;-81
2022/12/11 04:09:03;;;;;;;91.68;32.20;;;;;;;3.06;100.00;98298.97;5076196;28;20031;-83
2022/12/11 04:11:34;;;;;;;84.75;31.02;;;;;;;3.11;100.00;98306.25;5075961;28;20385;-82
2022/12/11 04:16:55;;;;;;;81.78;30.42;;;;;;;2.64;100.00;98305.97;5093788;28;20028;-83
2022/12/11 04:24:51;;;;;;;67.80;26.02;;;;;;;2.76;100.00;98297.88;5092738;28;20032;-80
2022/12/11 04:27:47;;;;;;;65.88;26.83;;;;;;;2.79;100.00;98298.34;5075335;28;20036;-81
2022/12/11 04:30:07;;;;;;;70.40;25.73;;;;;;;2.71;100.00;98299.16;5092017;28;20115;-82
2022/12/11 04:32:32;;;;;;;74.25;28.48;;;;;;;2.72;100.00;98298.16;5092997;28;20039;-81
2022/12/11 04:34:58;;;;;;;69.75;29.73;;;;;;;2.72;100.00;98295.59;5093753;28;21959;-82
2022/12/11 04:37:24;;;;;;;78.85;30.27;;;;;;;2.81;100.00;98295.59;5093114;28;20024;-82
2022/12/11 04:39:49;;;;;;;70.28;27.90;;;;;;;2.75;100.00;98297.06;5075116;28;20035;-82
2022/12/11 04:42:15;;;;;;;67.82;27.13;;;;;;;2.77;100.00;98299.50;5085889;28;20028;-82
2022/12/11 04:44:41;;;;;;;75.82;29.65;;;;;;;2.89;100.00;98293.00;5092854;28;20500;-81
2022/12/11 04:47:07;;;;;;;69.63;27.60;;;;;;;2.92;100.00;98300.44;5073907;28;20040;-80
2022/12/11 04:49:33;;;;;;;80.35;29.17;;;;;;;3.04;100.00;98306.09;5092914;28;20028;-82
2022/12/11 04:51:58;;;;;;;73.78;27.27;;;;;;;3.02;100.00;98302.84;5092662;28;20474;-82
2022/12/11 04:54:24;;;;;;;69.10;27.75;;;;;;;2.97;100.00;98295.59;5092557;28;20032;-81
2022/12/11 04:56:49;;;;;;;61.17;23.92;;;;;;;3.05;100.00;98299.13;5092760;28;20032;-81
2022/12/11 04:59:15;;;;;;;54.70;23.15;;;;;;;2.95;100.00;98300.13;5092661;28;20113;-81
2022/12/11 05:01:40;;;;;;;58.13;21.95;;;;;;;2.94;100.00;98295.09;5077825;28;20122;-81
2022/12/11 05:04:08;;;;;;;49.33;19.90;;;;;;;2.90;100.00;98289.41;5092546;28;20128;-82
2022/12/11 05:06:34;;;;;;;51.45;20.65;;;;;;;2.84;100.00;98295.25;5074671;28;20111;-82
2022/12/11 05:08:59;;;;;;;49.22;19.65;;;;;;;2.90;100.00;98304.19;5066517;28;20028;-83
2022/12/11 05:11:25;;;;;;;47.00;17.52;;;;;;;2.91;100.00;98296.22;5091246;28;20154;-82
2022/12/11 05:13:51;;;;;;;48.10;19.13;;;;;;;2.94;100.00;98295.09;5073950;28;20380;-82
2022/12/11 05:16:16;;;;;;;47.03;20.38;;;;;;;2.93;100.00;98290.88;5091776;28;20024;-81
2022/12/11 05:18:43;;;;;;;49.90;20.30;;;;;;;2.94;100.00;98290.72;5073509;28;20038;-81
2022/12/11 05:21:13;;;;;;;49.50;21.33;;;;;;;3.01;100.00;98290.88;5074131;28;20039;-82
2022/12/11 05:23:39;;;;;;;53.22;21.55;;;;;;;3.02;100.00;98292.47;5090475;28;20504;-80
2022/12/11 05:26:09;;;;;;;50.08;19.60;;;;;;;2.99;100.00;98293.63;5090871;28;20035;-81
2022/12/11 05:28:37;;;;;;;51.33;20.38;;;;;;;3.02;100.00;98291.69;5093749;28;20024;-81
2022/12/11 05:31:12;;;;;;;51.95;20.75;;;;;;;2.99;100.00;98282.44;5091986;28;20032;-81
2022/12/11 05:33:38;;;;;;;50.55;21.65;;;;;;;3.07;100.00;98284.22;5057644;28;20028;-82
2022/12/11 05:36:03;;;;;;;59.30;22.48;;;;;;;2.98;100.00;98286.84;5091766;28;20070;-83
2022/12/11 05:38:29;;;;;;;57.08;22.73;;;;;;;3.12;100.00;98287.13;5074389;28;20032;-82
2022/12/11 05:41:02;;;;;;;51.67;20.83;;;;;;;2.82;100.00;98287.63;5091851;28;20122;-82
2022/12/11 05:43:29;;;;;;;;;;;;;;;2.94;100.00;98290.72;5091287;28;20040;-83
2022/12/11 05:46:03;;;;;;;54.65;21.05;;;;;;;2.87;100.00;98284.56;5092072;28;19916;-82
2022/12/11 05:48:28;;;;;;;54.33;20.63;;;;;;;2.84;100.00;98290.09;5091850;28;20028;-82
2022/12/11 05:50:58;;;;;;;53.22;20.83;;;;;;;2.88;100.00;98275.81;5091553;28;20555;-81
2022/12/11 05:53:24;;;;;;;55.40;20.40;;;;;;;2.83;100.00;98280.69;5090828;28;20078;-82
2022/12/11 05:55:50;;;;;;;54.08;19.90;;;;;;;2.86;100.00;98277.75;5091853;28;20024;-82
2022/12/11 05:58:15;;;;;;;51.45;21.35;;;;;;;2.83;100.00;98280.69;5092122;28;20509;-81
2022/12/11 06:00:41;;;;;;;49.10;20.45;;;;;;;2.72;100.00;98276.66;5091279;28;20028;-81
2022/12/11 06:03:07;;;;;;;55.85;22.05;;;;;;;2.83;100.00;98278.88;5091623;28;20457;-81
2022/12/11 06:05:42;;;;;;;62.05;21.95;;;;;;;2.75;100.00;98284.09;5073017;28;20032;-81
2022/12/11 06:08:08;;;;;;;54.78;22.02;;;;;;;2.76;100.00;98284.91;5073138;28;20024;-81
2022/12/11 06:10:34;;;;;;;53.92;20.40;;;;;;;2.74;100.00;98282.47;5073304;28;20131;-81
2022/12/11 06:13:00;;;;;;;48.35;19.45;;;;;;;2.66;100.00;98287.66;5091505;28;20028;-81
2022/12/11 06:15:26;;;;;;;52.80;20.55;;;;;;;2.79;100.00;98287.19;5072839;28;20544;-81
2022/12/11 06:17:51;;;;;;;59.55;20.95;;;;;;;2.80;100.00;98281.03;5092383;28;20107;-82
2022/12/11 06:20:17;;;;;;;58.10;21.92;;;;;;;2.86;100.00;98280.34;5090533;28;20028;-81
2022/12/11 06:22:43;;;;;;;57.55;22.45;;;;;;;2.93;100.00;98273.53;5091665;28;20043;-81
2022/12/11 06:25:08;;;;;;;61.83;23.58;;;;;;;2.95;100.00;98287.16;5091303;28;20484;-81
2022/12/11 06:27:34;;;;;;;56.13;22.17;;;;;;;2.87;100.00;98281.19;5072607;28;20024;-82
2022/12/11 06:30:00;;;;;;;58.50;21.77;;;;;;;2.93;100.00;98289.09;5072651;28;20039;-81
2022/12/11 06:32:26;;;;;;;55.65;23.27;;;;;;;2.91;100.00;98285.84;5072861;28;20435;-81
2022/12/11 06:34:51;;;;;;;53.88;22.48;;;;;;;2.87;100.00;98281.19;5090534;28;20047;-81
2022/12/11 06:37:17;;;;;;;58.35;21.13;;;;;;;2.90;100.00;98284.22;5090600;28;20154;-82
2022/12/11 06:39:42;;;;;;;58.55;21.85;;;;;;;2.89;100.00;98287.00;5091358;28;20701;-82
2022/12/11 06:42:08;;;;;;;50.95;21.98;;;;;;;2.97;100.00;98280.03;5090990;28;20466;-81
2022/12/11 06:44:34;;;;;;;59.42;22.05;;;;;;;3.02;100.00;98286.50;5091010;28;20047;-82
2022/12/11 06:46:59;;;;;;;54.33;23.17;;;;;;;2.99;100.00;98283.28;5090787;28;20089;-81
2022/12/11 06:49:25;;;;;;;73.03;23.52;;;;;;;3.03;100.00;98293.31;5090143;28;20059;-82
2022/12/11 06:51:50;;;;;;;51.15;21.73;;;;;;;2.93;100.00;98289.09;5091881;28;20028;-81
2022/12/11 06:54:16;;;;;;;48.65;20.33;;;;;;;2.88;100.00;98286.19;5090516;28;20020;-82
2022/12/11 06:56:42;;;;;;;45.92;18.73;;;;;;;2.78;100.00;98285.56;5072942;28;20103;-81
2022/12/11 06:59:10;;;;;;;47.22;19.25;;;;;;;2.74;100.00;98285.06;5073758;28;20038;-82
2022/12/11 07:01:36;;;;;;;46.88;19.25;;;;;;;2.79;100.00;98284.59;5071337;28;20107;-82
2022/12/11 07:04:01;;;;;;;44.25;17.58;;;;;;;2.76;100.00;98292.69;5087467;28;20139;-83
2022/12/11 07:06:27;;;;;;;45.75;18.17;;;;;;;2.78;100.00;98281.16;5086590;28;20020;-81
2022/12/11 07:08:53;;;;;;;43.75;17.58;;;;;;;2.78;100.00;98282.97;5090372;28;20036;-80
2022/12/11 07:11:20;;;;;;;40.40;17.10;;;;;;;2.87;100.00;98284.56;5090107;28;20142;-81
2022/12/11 07:13:46;;;;;;;47.28;18.70;;;;;;;2.82;100.00;98292.81;5090220;28;20134;-81
2022/12/11 07:16:13;;;;;;;45.58;17.50;;;;;;;2.81;100.00;98293.00;5070377;28;20111;-83
2022/12/11 07:18:41;;;;;;;39.83;16.42;;;;;;;2.89;100.00;98302.56;5089425;28;20500;-81
2022/12/11 07:21:10;;;;;;;51.50;18.60;;;;;;;2.84;100.00;98285.69;5071557;28;20024;-82
2022/12/11 07:23:36;;;;;;;47.90;17.90;;;;;;;2.91;100.00;98298.03;5088924;28;20043;-82
2022/12/11 07:26:04;;;;;;;50.85;19.65;;;;;;;2.93;100.00;98298.66;5064729;28;20370;-82
2022/12/11 07:28:30;;;;;;;48.03;18.92;;;;;;;2.88;100.00;98299.16;5087180;28;20461;-82
2022/12/11 07:30:56;;;;;;;45.78;18.02;;;;;;;2.89;100.00;98303.34;5089046;28;20071;-81
2022/12/11 07:33:22;;;;;;;49.67;19.70;;;;;;;2.63;100.00;98299.16;5089653;28;20028;-82
2022/12/11 07:35:48;;;;;;;46.80;18.52;;;;;;;2.74;100.00;98289.44;5090001;28;20400;-81
2022/12/11 07:38:14;;;;;;;43.88;17.90;;;;;;;2.82;100.00;98286.84;5089411;28;20035;-80
2022/12/11 07:40:39;;;;;;;45.88;18.77;;;;;;;2.82;100.00;98298.00;5091422;28;20482;-80
2022/12/11 07:43:05;;;;;;;42.10;18.00;;;;;;;2.76;100.00;98296.06;5091813;28;20121;-81
2022/12/11 07:45:31;;;;;;;47.17;19.75;;;;;;;2.56;100.00;98288.63;5093814;28;20478;-81
2022/12/11 07:47:57;;;;;;;49.00;19.38;;;;;;;2.68;100.00;98301.28;5075260;28;20039;-81
2022/12/11 07:50:22;;;;;;;50.38;18.90;;;;;;;2.68;100.00;98303.88;5092753;28;20024;-80
2022/12/11 07:52:47;;;;;;;51.08;20.67;;;;;;;2.63;100.00;98301.75;5077481;28;20462;-81
2022/12/11 07:55:13;;;;;;;47.88;19.80;;;;;;;2.69;100.00;98306.28;5094776;28;20032;-81
2022/12/11 07:57:39;;;;;;;46.70;19.17;;;;;;;2.76;100.00;98306.44;5075673;28;20518;-81
2022/12/11 08:00:06;;;;;;;49.80;20.92;;;;;;;2.70;100.00;98305.31;5094112;28;20069;-81
2022/12/11 08:02:31;;;;;;;50.15;19.25;;;;;;;2.70;100.00;98302.72;5093415;28;20088;-81
2022/12/11 08:04:57;;;;;;;52.70;19.73;;;;;;;2.74;100.00;98315.34;5092657;28;20501;-81
2022/12/11 08:07:22;;;;;;;47.60;20.02;;;;;;;2.65;100.00;98306.75;5093090;28;20486;-81
2022/12/11 08:09:48;;;;;;;46.95;19.15;;;;;;;2.59;100.00;98321.19;5093551;28;20111;-82
2022/12/11 08:12:13;;;;;;;48.53;19.02;;;;;;;2.57;100.00;98323.13;5075465;28;20043;-81
2022/12/11 08:14:38;;;;;;;47.92;19.23;;;;;;;2.47;100.00;98315.50;5093935;28;20389;-80
2022/12/11 08:17:04;;;;;;;52.88;19.55;;;;;;;2.57;100.00;98323.13;5093247;28;20039;-81
2022/12/11 08:19:30;;;;;;;56.65;20.10;;;;;;;2.58;100.00;98316.97;5093275;28;20024;-81
2022/12/11 08:21:56;;;;;;;44.42;18.02;;;;;;;2.49;100.00;98318.75;5092435;28;20036;-81
2022/12/11 08:24:21;;;;;;;50.05;20.60;;;;;;;2.47;100.00;98314.69;5076126;28;20116;-81
2022/12/11 08:26:47;;;;;;;50.83;20.10;;;;;;;2.48;100.00;98324.91;5094516;28;20423;-81
2022/12/11 08:29:13;;;;;;;49.63;18.95;;;;;;;2.55;100.00;98319.88;5092647;28;20031;-81
2022/12/11 08:31:40;;;;;;;53.63;19.67;;;;;;;2.50;100.00;98317.78;5092192;28;20032;-80
2022/12/11 08:34:06;;;;;;;54.92;21.38;;;;;;;2.51;100.00;98326.34;5094278;28;20077;-81
2022/12/11 08:36:31;;;;;;;52.45;21.23;;;;;;;2.76;100.00;98321.19;5093058;28;20077;-81
2022/12/11 08:38:57;;;;;;;50.90;19.33;;;;;;;2.81;100.00;98317.13;5092037;28;20042;-81
2022/12/11 08:41:26;;;;;;;46.03;19.08;;;;;;;2.72;100.00;98315.53;5093535;28;20056;-82
2022/12/11 08:43:53;;;;;;;39.47;16.80;;;;;;;2.75;100.00;98316.97;5074254;28;20105;-82
2022/12/11 08:46:22;;;;;;;43.30;18.15;;;;;;;2.66;100.00;98323.94;5074125;28;20547;-81
2022/12/11 08:48:48;;;;;;;44.67;17.05;;;;;;;2.46;100.00;98320.84;5092779;28;20103;-83
2022/12/11 08:51:15;;;;;;;43.95;16.92;;;;;;;2.52;100.00;98327.97;5093335;28;20501;-81
2022/12/11 08:53:41;;;;;;;43.10;17.65;;;;;;;2.47;100.00;98330.22;5091936;28;20024;-82
2022/12/11 08:56:13;;;;;;;40.70;16.80;;;;;;;2.53;100.00;98329.56;5092544;28;20442;-82
2022/12/11 08:58:39;;;;;;;40.10;16.58;;;;;;;2.49;100.00;98328.28;5090930;28;20032;-81
2022/12/11 09:01:08;;;;;;;37.35;16.35;;;;;;;2.55;100.00;98338.00;5087937;28;20138;-83
2022/12/11 09:03:35;;;;;;;44.38;18.08;;;;;;;2.55;100.00;98331.06;5091742;28;20032;-82
2022/12/11 09:06:04;;;;;;;40.05;16.85;;;;;;;2.52;100.00;98338.31;5074220;28;20032;-81
2022/12/11 09:08:32;;;;;;;38.00;16.55;;;;;;;2.39;100.00;98331.84;5090054;28;20020;-80
2022/12/11 09:11:04;;;;;;;35.25;15.45;;;;;;;2.57;100.00;98331.69;5086663;28;20481;-87
2022/12/11 09:13:30;;;;;;;39.00;17.77;;;;;;;2.45;100.00;98329.56;5086244;28;20032;-83
2022/12/11 09:15:55;;;;;;;38.00;16.52;;;;;;;2.50;100.00;98329.91;5091496;28;20020;-82
2022/12/11 09:18:21;;;;;;;40.15;16.75;;;;;;;2.65;100.00;98330.91;5092682;28;20029;-83
2022/12/11 09:20:46;;;;;;;43.15;18.38;;;;;;;2.69;100.00;98332.19;5091948;28;20035;-83
2022/12/11 09:23:12;;;;;;;45.95;18.95;;;;;;;2.58;100.00;98329.94;5092794;28;20489;-82
2022/12/11 09:25:41;;;;;;;40.10;17.35;;;;;;;2.65;100.00;98325.72;5057401;28;20027;-82
2022/12/11 09:28:06;;;;;;;40.55;19.65;;;;;;;2.65;100.00;98315.34;5091503;28;20036;-83
2022/12/11 09:30:32;;;;;;;54.60;29.10;;;;;;;2.69;100.00;98329.59;5092752;28;20394;-82
2022/12/11 09:32:58;;;;;;;42.58;20.48;;;;;;;2.68;100.00;98330.56;5092364;28;20040;-83
2022/12/11 09:35:25;;;;;;;48.35;17.92;;;;;;;2.63;100.00;98327.66;5086257;28;20107;-82
2022/12/11 09:37:50;;;;;;;32.33;15.55;;;;;;;2.54;100.00;98326.00;5073657;28;20051;-82
2022/12/11 09:40:16;;;;;;;45.30;17.50;;;;;;;2.57;100.00;98320.53;5091047;28;20032;-81
2022/12/11 09:43:17;;;;;;;37.13;16.17;;;;;;;2.56;100.00;98326.69;5092054;28;20043;-82
2022/12/11 09:45:42;;;;;;;37.92;16.05;;;;;;;2.74;100.00;98326.53;5055225;28;20520;-82
2022/12/11 09:48:10;;;;;;;30.05;13.55;;;;;;;2.67;100.00;98323.78;5056303;28;20106;-82
2022/12/11 09:50:36;;;;;;;33.55;16.13;;;;;;;2.57;100.00;98325.72;5090440;28;20153;-81
2022/12/11 09:53:10;;;;;;;34.10;15.80;;;;;;;2.69;100.00;98332.19;5088771;28;20452;-82
2022/12/11 09:55:42;;;;;;;30.27;15.15;;;;;;;2.70;100.00;98330.41;5073915;28;20032;-83
2022/12/11 09:58:20;;;;;;;32.25;14.82;;;;;;;2.72;100.00;98324.09;5089723;28;20027;-84
2022/12/11 10:00:52;;;;;;;33.67;15.63;;;;;;;2.60;100.00;98320.22;5090333;28;20036;-82
2022/12/11 10:03:49;;;;;;;29.45;13.95;;;;;;;2.78;100.00;98333.00;5088506;28;21482;-83
2022/12/11 10:06:31;;;;;;;36.40;16.40;;;;;;;2.81;100.00;98327.50;5090165;28;20024;-83
2022/12/11 10:09:24;;;;;;;33.92;15.77;;;;;;;2.83;100.00;98327.34;5089036;28;20424;-82
2022/12/11 10:12:08;;;;;;;32.75;15.88;;;;;;;2.80;100.00;98319.91;5070887;28;20032;-82
2022/12/11 10:14:51;;;;;;;35.70;17.05;;;;;;;2.85;100.00;98328.00;5089150;28;20107;-82
2022/12/11 10:17:28;;;;;;;34.97;15.88;;;;;;;3.00;100.00;98326.38;5091065;28;20024;-83
2022/12/11 10:19:56;;;;;;;33.00;14.40;;;;;;;2.94;100.00;98318.44;5090569;28;20036;-83
2022/12/11 10:22:28;;;;;;;35.67;16.65;;;;;;;3.02;100.00;98322.81;5072870;28;20032;-81
2022/12/11 10:25:04;;;;;;;30.77;15.05;;;;;;;2.96;100.00;98324.25;5090692;28;20051;-83
2022/12/11 10:27:33;;;;;;;35.20;15.00;;;;;;;2.93;100.00;98330.56;5071244;28;20035;-83
2022/12/11 10:30:11;;;;;;;32.63;14.82;;;;;;;3.08;100.00;98322.13;5072014;28;20036;-82
2022/12/11 10:33:02;;;;;;;32.17;15.55;;;;;;;3.20;100.00;98318.25;5072243;28;20032;-83
2022/12/11 10:35:54;;;;;;;34.25;16.05;;;;;;;3.22;100.00;98320.66;5087671;28;20110;-83
2022/12/11 10:38:30;;;;;;;28.23;15.00;;;;;;;3.31;100.00;98319.69;5083358;28;20055;-83
2022/12/11 10:41:04;;;;;;;42.30;22.88;;;;;;;3.35;100.00;98305.41;5089221;28;20439;-83
2022/12/11 10:43:38;;;;;;;26.77;13.55;;;;;;;3.35;100.00;98312.38;5077767;28;20050;-82
2022/12/11 10:46:06;;;;;;;30.60;15.82;;;;;;;3.35;100.00;98313.19;5054562;28;20068;-84
2022/12/11 10:48:32;;;;;;;29.75;17.70;;;;;;;3.42;100.00;98319.31;5089466;28;20078;-82
2022/12/11 10:51:01;;;;;;;23.25;12.70;;;;;;;3.43;100.00;98318.34;5092373;28;20135;-82
2022/12/11 10:53:29;;;;;;;21.33;10.88;;;;;;;3.33;100.00;98309.94;5071827;28;20028;-84
2022/12/11 10:55:57;;;;;;;26.27;13.75;;;;;;;3.46;100.00;98314.63;5089471;28;20027;-83
2022/12/11 10:58:26;;;;;;;18.30;9.98;;;;;;;3.60;100.00;98307.91;5072521;28;20131;-85
2022/12/11 11:01:29;;;;;;;25.58;11.63;;;;;;;3.70;100.00;98310.31;5090260;28;20568;-84
2022/12/11 11:04:32;;;;;;;19.85;10.30;;;;;;;3.67;100.00;98305.47;5056679;28;20057;-84
2022/12/11 11:07:12;;;;;;;22.88;12.00;;;;;;;3.93;100.00;98294.00;5037589;28;20048;-84
2022/12/11 11:09:39;;;;;;;24.65;12.90;;;;;;;3.99;100.00;98298.53;5086520;28;20533;-82
2022/12/11 11:12:18;;;;;;;16.67;9.27;;;;;;;3.96;100.00;98293.69;5073483;28;20713;-83
2022/12/11 11:14:44;;;;;;;20.05;10.80;;;;;;;4.13;100.00;98290.00;5089272;28;20046;-84
2022/12/11 11:17:14;;;;;;;20.10;10.10;;;;;;;4.20;100.00;98286.72;5090150;28;20111;-83
2022/12/11 11:19:40;;;;;;;19.83;10.02;;;;;;;4.16;100.00;98285.44;5063954;28;20426;-83
2022/12/11 11:22:17;;;;;;;20.23;11.75;;;;;;;4.39;100.00;98282.84;5084563;28;20115;-84
2022/12/11 11:24:54;;;;;;;23.13;13.68;;;;;;;4.40;100.00;98280.09;5089058;28;20787;-83
2022/12/11 11:27:33;;;;;;;20.33;10.82;;;;;;;4.37;100.00;98285.63;5089155;28;20033;-84
2022/12/11 11:30:02;;;;;;;21.20;11.35;;;;;;;4.57;100.00;98277.38;5089906;28;20043;-83
2022/12/11 11:32:35;;;;;;;25.30;12.77;;;;;;;4.58;100.00;98281.59;5075885;28;20028;-83
2022/12/11 11:35:17;;;;;;;24.35;13.63;;;;;;;4.53;100.00;98278.72;5089483;28;20044;-83